Umm al Qaywayn, United Arab Emirates
Current Conditions -  °F | °C
As of 12:00 PM on Friday 28 Nov 2014 (Local Time) from OMSJ Reporting Station
Few Clouds Few Clouds  
Wind Chill: 82°   Ceiling: Unl
Heat Index: 84°   Visibility: 6mi
Dew Point: 64°   Wind: 10mph
Humidity: 54%   Direction: 270°W
Pressure: 29.97"   Gusts: NA
Location:  25.59°N, 55.56°E
Report Text: OMSJ 280800Z 27009KT 240V300 9999 FEW030 28/18 Q1015
Loading
Personal Weather Stations






























Interactive Weather Map New forecast layout! Learn more

10-Day Weather Forecast

Advertisements
Track Severe Weather on mobile